Latest Weather Observations for Coldstream

IDV60901

Issued at 5:01 am EDT Wednesday 13 November 2019 (issued every 10 minutes, with the page automatically refreshed every 10 minutes)

About weather observations | Map of Melbourne area stations | Latest observations for Melbourne area | Other Formats
Station Details ID: 086383 Name: COLDSTREAM Lat: -37.72 Lon: 145.41 Height: 83.0 m
Data from the previous 72 hours. | See also: Recent months at Coldstream
Date/Time
EDT
Temp
°C
App
Temp
°C
Dew
Point
°C
Rel
Hum
%
Delta-T
°C
Wind Press
QNH
hPa
Press
MSL
hPa
Rain since
9am
mm
Dir  Spd
km/h
Gust
km/h
Spd
kts
Gust
kts
13/05:00am 8.2 6.1 5.8 85 1.1 NNW 6 11 3 6 1015.1 1015.0 2.6
13/04:30am 8.3 5.6 5.8 84 1.1 NNW 9 13 5 7 1015.2 1015.1 2.6
13/04:00am 8.0 5.8 6.1 88 0.9 NNW 7 13 4 7 1015.4 1015.3 2.6
13/03:30am 7.5 5.2 5.6 88 0.9 N 7 9 4 5 1015.6 1015.5 2.6
13/03:00am 7.5 5.4 5.6 88 0.9 NNW 6 9 3 5 1015.9 1015.8 2.6
13/02:30am 7.4 4.6 5.0 85 1.1 NNW 9 11 5 6 1016.0 1015.9 2.6
13/02:00am 8.4 5.6 5.3 81 1.4 NW 9 17 5 9 1016.0 1015.9 2.6
13/01:30am 8.1 5.4 5.6 84 1.1 NW 9 13 5 7 1016.1 1016.0 2.6
13/01:00am 7.9 5.2 5.4 84 1.1 NW 9 15 5 8 1016.2 1016.1 2.6
13/12:30am 7.8 4.5 4.7 81 1.4 WNW 11 17 6 9 1016.1 1016.0 2.6
13/12:00am 8.3 4.7 5.1 80 1.4 WNW 13 22 7 12 1016.0 1015.9 2.6
 
Date/Time
EDT
Temp
°C
App
Temp
°C
Dew
Point
°C
Rel
Hum
%
Delta-T
°C
Wind Press
QNH
hPa
Press
MSL
hPa
Rain since
9am
mm
Dir  Spd
km/h
Gust
km/h
Spd
kts
Gust
kts
12/11:30pm 8.6 5.6 5.9 83 1.2 NW 11 15 6 8 1015.8 1015.7 2.6
12/11:00pm 8.5 5.1 6.1 85 1.1 WNW 13 19 7 10 1015.9 1015.8 2.6
12/10:46pm 8.5 3.8 5.1 79 1.5 WNW 19 41 10 22 1015.9 1015.8 2.6
12/10:30pm 9.2 5.6 5.2 76 1.8 WNW 13 20 7 11 1015.7 1015.6 2.2
12/10:00pm 9.1 5.1 4.9 75 1.9 WNW 15 19 8 10 1015.5 1015.4 2.2
12/09:30pm 9.5 6.0 5.3 75 1.9 WNW 13 20 7 11 1014.8 1014.7 2.2
12/09:00pm 10.0 5.2 5.6 74 2.0 W 20 32 11 17 1014.3 1014.1 2.2
12/08:30pm 10.1 4.9 5.5 73 2.1 W 22 35 12 19 1013.7 1013.6 2.2
12/08:00pm 10.0 5.8 5.8 75 1.9 WNW 17 28 9 15 1013.1 1013.0 2.2
12/07:30pm 10.2 6.6 6.7 79 1.7 W 15 22 8 12 1012.5 1012.4 2.2
12/07:00pm 9.8 4.1 6.7 81 1.5 W 26 57 14 31 1012.4 1012.3 2.2
12/06:57pm 10.4 5.0 6.5 77 1.8 W 24 57 13 31 1012.4 1012.3 2.2
12/06:30pm 11.1 8.8 9.0 87 1.0 WNW 11 33 6 18 1011.4 1011.3 2.0
12/06:00pm 10.6 7.1 8.7 88 0.9 NW 17 32 9 17 1011.1 1011.0 0.8
12/05:30pm 11.3 5.1 7.8 79 1.7 WSW 30 57 16 31 1010.8 1010.7 0.6
12/05:28pm 11.6 5.7 7.7 77 1.9 WSW 28 57 15 31 1010.8 1010.7 0.4
12/05:00pm 15.0 8.5 4.7 50 4.8 WSW 28 44 15 24 1009.9 1009.8 0.0
12/04:33pm 15.7 8.6 5.3 50 5.0 W 32 50 17 27 1009.6 1009.5 0.0
12/04:30pm 15.9 8.5 4.9 48 5.2 W 33 50 18 27 1009.4 1009.3 0.0
12/04:13pm 15.8 9.1 3.6 44 5.6 W 28 50 15 27 1009.1 1009.0 0.0
12/04:00pm 16.4 10.9 5.7 49 5.2 W 24 35 13 19 1009.1 1009.0 0.0
12/03:30pm 14.4 9.9 7.0 61 3.6 W 20 28 11 15 1009.6 1009.5 0.0
12/03:00pm 15.7 9.5 6.2 53 4.6 WSW 28 41 15 22 1009.6 1009.5 0.0
12/02:30pm 13.1 5.2 6.0 62 3.4 WSW 37 61 20 33 1009.7 1009.6 0.0
12/02:26pm 14.4 7.5 4.7 52 4.5 W 30 54 16 29 1009.3 1009.2 0.0
12/02:00pm 16.6 11.4 7.3 54 4.7 W 24 37 13 20 1009.2 1009.1 0.0
12/01:30pm 16.6 10.4 6.1 50 5.1 WSW 28 43 15 23 1009.3 1009.2 0.0
12/01:00pm 15.9 9.8 4.9 48 5.2 W 26 35 14 19 1009.1 1009.0 0.0
12/12:30pm 14.5 8.5 5.3 54 4.4 W 26 39 14 21 1009.3 1009.2 0.0
12/12:00pm 13.9 8.3 5.3 56 4.1 WSW 24 39 13 21 1009.2 1009.1 0.0
12/11:30am 13.4 7.7 5.1 57 3.9 SW 24 43 13 23 1009.2 1009.1 0.0
12/11:00am 15.0 9.7 6.8 58 4.0 WSW 24 39 13 21 1008.8 1008.7 0.0
12/10:30am 13.1 8.9 7.3 68 2.8 SW 19 33 10 18 1008.7 1008.6 0.0
12/10:00am 12.6 7.8 7.5 71 2.5 WSW 22 32 12 17 1008.5 1008.4 0.0
12/09:30am 12.2 8.2 9.2 82 1.5 W 20 30 11 16 1008.2 1008.1 0.0
12/09:00am 12.5 10.3 9.5 82 1.5 W 11 19 6 10 1008.0 1007.9 0.6
12/08:30am 11.5 10.0 10.4 93 0.6 WSW 9 13 5 7 1007.6 1007.5 0.6
12/08:00am 11.1 9.2 10.5 96 0.3 SW 11 17 6 9 1007.2 1007.1 0.6
12/07:30am 10.8 8.9 10.6 99 0.1 SW 11 22 6 12 1006.9 1006.8 0.6
12/07:00am 11.0 8.8 10.8 99 0.1 SW 13 22 7 12 1006.4 1006.3 0.6
12/06:30am 11.5 8.3 11.3 99 0.1 SW 19 30 10 16 1006.0 1005.9 0.4
12/06:00am 12.0 8.8 11.8 99 0.1 SW 20 33 11 18 1005.1 1005.0 0.4
12/05:30am 13.4 11.2 13.2 99 0.1 WSW 17 26 9 14 1004.5 1004.4 0.0
12/05:00am 14.5 14.4 12.2 86 1.3 S 4 17 2 9 1004.1 1003.9 0.0
12/04:30am 14.6 12.0 11.9 84 1.5 WSW 17 35 9 19 1002.9 1002.7 0.0
12/04:00am 16.1 10.6 10.4 69 3.0 WSW 30 43 16 23 1001.9 1001.7 0.0
12/03:59am 16.3 10.7 10.2 67 3.2 WSW 30 43 16 23 1001.8 1001.6 0.0
12/03:31am 21.3 15.3 3.5 31 8.5 W 24 46 13 25 1000.7 1000.6 0.0
12/03:30am 21.5 15.5 3.2 30 8.7 WNW 24 46 13 25 1000.6 1000.5 0.0
12/03:00am 23.0 16.9 0.2 22 10.5 N 22 41 12 22 998.6 998.5 0.0
12/02:30am 23.0 16.9 0.2 22 10.4 N 22 35 12 19 999.0 998.9 0.0
12/02:00am 23.2 17.5 0.3 22 10.6 N 20 33 11 18 999.3 999.2 0.0
12/01:30am 23.0 17.3 0.8 23 10.2 N 20 35 11 19 1000.0 999.9 0.0
12/01:00am 22.8 16.9 1.8 25 9.9 N 22 35 12 19 1000.8 1000.7 0.0
12/12:30am 23.0 17.4 1.4 24 10.1 N 20 30 11 16 1001.5 1001.4 0.0
12/12:00am 22.6 17.4 2.7 27 9.5 N 19 32 10 17 1001.5 1001.4 0.0
 
Date/Time
EDT
Temp
°C
App
Temp
°C
Dew
Point
°C
Rel
Hum
%
Delta-T
°C
Wind Press
QNH
hPa
Press
MSL
hPa
Rain since
9am
mm
Dir  Spd
km/h
Gust
km/h
Spd
kts
Gust
kts
11/11:30pm 21.1 17.4 4.6 34 8.1 N 13 20 7 11 1002.1 1001.9 0.0
11/11:28pm 20.6 17.0 5.0 36 7.7 N 13 19 7 10 1002.2 1002.0 0.0
11/11:00pm 15.5 15.6 10.3 71 2.8 CALM 0 6 0 3 1002.8 1002.6 0.0
11/10:30pm 17.8 17.3 7.8 52 5.1 CALM 0 0 0 0 1003.2 1003.0 0.0
11/10:00pm 22.0 18.1 3.6 30 8.9 N 13 17 7 9 1003.2 1003.0 0.0
11/09:30pm 20.4 17.9 6.7 41 6.9 N 9 13 5 7 1003.7 1003.5 0.0
11/09:00pm 20.3 17.2 5.5 38 7.4 N 11 17 6 9 1003.9 1003.7 0.0
11/08:30pm 19.6 17.1 6.7 43 6.5 N 9 15 5 8 1005.1 1005.0 0.0
11/08:00pm 21.4 18.8 6.1 37 7.8 N 9 17 5 9 1005.4 1005.3 0.0
11/07:30pm 23.6 20.2 6.0 32 9.0 N 13 19 7 10 1005.5 1005.4 0.0
11/07:00pm 24.6 21.6 7.7 34 9.0 N 13 22 7 12 1005.6 1005.5 0.0
11/06:30pm 25.4 22.6 8.4 34 9.2 N 13 22 7 12 1005.5 1005.4 0.0
11/06:00pm 26.4 23.1 7.9 31 10.0 N 15 20 8 11 1005.9 1005.8 0.0
11/05:30pm 26.7 22.7 6.7 28 10.5 N 17 26 9 14 1006.4 1006.3 0.0
11/05:00pm 26.7 23.8 9.5 34 9.5 N 15 28 8 15 1006.6 1006.5 0.0
11/04:30pm 26.4 22.7 9.3 34 9.4 N 19 33 10 18 1007.0 1006.9 0.0
11/04:00pm 26.2 21.5 7.7 31 9.9 N 22 37 12 20 1007.4 1007.3 0.0
11/03:30pm 26.3 23.0 10.9 38 8.7 N 19 37 10 20 1008.0 1007.9 0.0
11/03:00pm 25.4 21.2 9.7 37 8.7 N 22 41 12 22 1008.5 1008.4 0.0
11/02:30pm 25.1 21.2 9.4 37 8.6 N 20 33 11 18 1009.2 1009.1 0.0
11/02:00pm 23.9 18.9 9.5 40 7.9 N 26 44 14 24 1009.6 1009.5 0.0
11/01:30pm 24.0 19.1 9.9 41 7.7 N 26 39 14 21 1010.3 1010.2 0.0
11/01:00pm 23.5 20.3 11.9 48 6.6 N 20 35 11 19 1010.7 1010.6 0.0
11/12:30pm 22.7 19.5 13.2 55 5.5 N 22 37 12 20 1011.5 1011.4 0.0
11/12:00pm 21.9 17.0 11.3 51 5.9 N 28 39 15 21 1012.1 1012.0 0.0
11/11:30am 21.2 17.3 12.1 56 5.1 N 24 35 13 19 1012.3 1012.2 0.0
11/11:00am 20.1 15.7 10.5 54 5.2 N 24 39 13 21 1012.7 1012.6 0.0
11/10:30am 19.8 16.2 10.5 55 5.0 N 20 30 11 16 1013.1 1013.0 0.0
11/10:00am 19.1 15.1 9.0 52 5.3 N 20 37 11 20 1013.3 1013.2 0.0
11/09:30am 18.7 15.1 10.0 57 4.7 N 19 30 10 16 1013.6 1013.5 0.0
11/09:00am 17.8 14.5 9.4 58 4.4 N 17 26 9 14 1013.4 1013.3 0.0
11/08:30am 16.7 14.4 10.5 67 3.3 NNW 13 19 7 10 1013.1 1013.0 0.0
11/08:00am 15.0 13.5 11.8 81 1.7 N 11 17 6 9 1012.8 1012.7 0.0
11/07:30am 12.4 11.8 12.4 100 0.0 N 7 13 4 7 1012.5 1012.4 0.0
11/07:00am 8.1 7.7 8.1 100 0.0 CALM 0 0 0 0 1012.4 1012.3 0.0
11/06:30am 5.7 4.7 5.7 100 0.0 CALM 0 6 0 3 1012.3 1012.2 0.0
11/06:00am 5.7 4.7 5.7 100 0.0 CALM 0 0 0 0 1012.5 1012.4 0.0
11/05:30am 5.5 4.5 5.5 100 0.0 CALM 0 0 0 0 1012.7 1012.6 0.0
11/05:00am 5.5 4.5 5.5 100 0.0 CALM 0 6 0 3 1012.7 1012.6 0.0
11/04:30am 5.8 4.8 5.8 100 0.0 CALM 0 0 0 0 1013.0 1012.9 0.0
11/04:00am 6.0 5.1 5.9 99 0.0 CALM 0 0 0 0 1013.0 1012.9 0.0
11/03:30am 6.4 5.6 6.3 99 0.0 CALM 0 0 0 0 1013.0 1012.9 0.0
11/03:00am 7.0 6.3 6.9 99 0.0 CALM 0 0 0 0 1013.2 1013.1 0.0
11/02:30am 7.6 7.0 7.5 99 0.0 CALM 0 0 0 0 1013.6 1013.5 0.0
11/02:00am 8.7 8.4 8.6 99 0.0 CALM 0 0 0 0 1014.2 1014.0 0.0
11/01:30am 9.5 9.4 9.4 99 0.0 CALM 0 0 0 0 1014.7 1014.6 0.0
11/01:00am 10.2 10.3 10.1 99 0.1 CALM 0 0 0 0 1015.3 1015.2 0.0
11/12:30am 11.5 11.9 11.3 99 0.1 CALM 0 0 0 0 1015.9 1015.8 0.0
11/12:00am 12.0 12.6 11.8 99 0.1 CALM 0 0 0 0 1015.7 1015.6 0.0
 
Date/Time
EDT
Temp
°C
App
Temp
°C
Dew
Point
°C
Rel
Hum
%
Delta-T
°C
Wind Press
QNH
hPa
Press
MSL
hPa
Rain since
9am
mm
Dir  Spd
km/h
Gust
km/h
Spd
kts
Gust
kts
10/11:30pm 12.4 13.1 12.2 99 0.1 CALM 0 0 0 0 1015.9 1015.8 0.0
10/11:00pm 12.4 13.1 12.2 99 0.1 CALM 0 0 0 0 1016.3 1016.2 0.0
10/10:30pm 12.9 13.7 12.6 98 0.2 CALM 0 0 0 0 1016.0 1015.9 0.0
10/10:00pm 13.5 14.3 12.7 95 0.4 CALM 0 0 0 0 1016.7 1016.6 0.0
10/09:30pm 13.6 14.2 12.0 90 0.9 CALM 0 0 0 0 1016.3 1016.2 0.0
10/09:00pm 14.0 14.2 11.9 87 1.1 SSE 2 7 1 4 1016.2 1016.1 0.0
10/08:30pm 14.4 14.6 11.7 84 1.5 WSW 2 6 1 3 1016.1 1016.0 0.0
10/08:00pm 14.8 13.9 11.2 79 1.9 WSW 7 13 4 7 1016.3 1016.2 0.0
10/07:30pm 15.4 15.0 11.2 76 2.3 SW 4 9 2 5 1016.1 1016.0 0.0
10/07:00pm 15.8 16.1 10.8 72 2.7 CALM 0 4 0 2 1015.8 1015.7 0.0
10/06:30pm 15.9 15.0 11.3 74 2.5 W 7 13 4 7 1015.6 1015.5 0.0
10/06:00pm 15.9 14.4 10.7 71 2.8 W 9 13 5 7 1015.7 1015.6 0.0
10/05:30pm 16.1 14.6 10.6 70 2.9 W 9 15 5 8 1015.6 1015.5 0.0
10/05:00pm 16.1 13.7 10.2 68 3.1 W 13 17 7 9 1015.6 1015.5 0.0
10/04:30pm 16.3 13.7 10.6 69 3.0 W 15 22 8 12 1015.7 1015.6 0.0
10/04:00pm 16.4 14.1 10.5 68 3.1 W 13 19 7 10 1015.7 1015.6 0.0
10/03:30pm 16.0 13.7 10.3 69 3.0 W 13 17 7 9 1015.9 1015.8 0.0
10/03:00pm 16.4 14.6 10.7 69 3.0 W 11 17 6 9 1016.3 1016.2 0.0
10/02:30pm 15.9 14.1 9.6 66 3.3 W 9 17 5 9 1016.4 1016.3 0.0
10/02:00pm 15.6 13.4 9.3 66 3.3 NW 11 17 6 9 1016.6 1016.5 0.0
10/01:30pm 14.8 12.7 9.6 71 2.7 W 11 17 6 9 1016.8 1016.7 0.0
10/01:00pm 14.7 12.5 9.5 71 2.7 WNW 11 22 6 12 1016.8 1016.7 0.0
10/12:30pm 15.0 12.1 9.8 71 2.7 W 15 24 8 13 1016.9 1016.8 0.0
10/12:00pm 14.9 12.0 9.7 71 2.7 WNW 15 24 8 13 1017.1 1017.0 0.0
10/11:30am 14.6 11.0 9.8 73 2.5 W 19 28 10 15 1017.2 1017.1 0.0
10/11:00am 13.7 10.5 9.9 78 2.0 WSW 17 28 9 15 1017.4 1017.3 0.0
10/10:30am 13.1 10.8 10.6 85 1.3 W 13 19 7 10 1017.4 1017.3 0.0
10/10:00am 12.9 10.3 10.6 86 1.2 W 15 20 8 11 1017.3 1017.2 0.0
10/09:30am 12.1 9.4 10.5 90 0.8 W 15 20 8 11 1017.2 1017.1 0.0
10/09:00am 11.6 8.9 10.2 91 0.7 W 15 20 8 11 1017.0 1016.9 2.2
10/08:30am 11.3 9.8 10.4 94 0.5 WNW 9 17 5 9 1016.8 1016.7 2.2
10/08:00am 10.7 10.1 10.5 99 0.1 WNW 4 11 2 6 1016.4 1016.3 2.2
10/07:30am 10.5 9.3 10.3 99 0.1 WNW 7 13 4 7 1016.1 1016.0 2.2
10/07:00am 10.4 9.7 10.2 99 0.1 NW 4 9 2 5 1015.7 1015.6 2.0
10/06:30am 10.1 9.8 10.0 99 0.1 NNW 2 6 1 3 1015.5 1015.4 2.0
10/06:00am 10.0 9.6 9.9 99 0.1 NNW 2 6 1 3 1015.2 1015.1 2.0
10/05:30am 9.9 9.1 9.8 99 0.1 N 4 7 2 4 1014.9 1014.8 2.0

Latest Capital City Observations: Canberra | Sydney | Melbourne | Brisbane | Adelaide | Perth | Hobart | Darwin

Other formats

Comma delimited format used in spreadsheet applications
http://www.bom.gov.au/fwo/IDV60901/IDV60901.94864.axf

JavaScript Object Notation format (JSON) in row-major order
http://www.bom.gov.au/fwo/IDV60901/IDV60901.94864.json

Data quality

Most of these data are generated automatically and are frequently updated. Quality checks on data are not normally performed. It is possible for incorrect values to appear. Refer to information at About Latest Weather Observations and please check the disclaimer before using these data.